EST,Max TemperatureF,Mean TemperatureF,Min TemperatureF,Max Dew PointF,MeanDew PointF,Min DewpointF,Max Humidity, Mean Humidity, Min Humidity, Max Sea Level PressureIn, Mean Sea Level PressureIn, Min Sea Level PressureIn, Max VisibilityMiles, Mean VisibilityMiles, Min VisibilityMiles, Max Wind SpeedMPH, Mean Wind SpeedMPH, Max Gust SpeedMPH,PrecipitationIn, CloudCover, Events, WindDirDegrees
2011-11-1,75,66,57,60,55,49,94,74,44,30.23,30.16,30.10,10,9,7,18,10,24,0.00,2,,21
2011-11-2,80,66,54,61,55,51,90,70,40,30.24,30.19,30.15,10,10,10,15,8,25,0.00,1,,38
2011-11-3,80,69,59,63,60,58,96,78,50,30.17,30.09,29.98,10,9,5,7,5,,0.00,4,,75
2011-11-4,66,62,55,64,54,44,94,72,47,30.01,29.92,29.87,10,10,8,15,9,23,0.01,3,Rain,280
2011-11-5,71,62,54,54,51,46,82,71,55,30.14,30.08,29.99,10,10,10,18,11,25,0.00,5,,7
2011-11-6,75,65,57,63,58,52,94,82,62,30.23,30.18,30.12,10,10,9,20,11,28,0.00,7,,14
2011-11-7,80,72,64,64,62,55,96,80,42,30.23,30.19,30.13,10,10,6,15,9,22,0.01,5,Rain,26
2011-11-8,80,71,62,65,61,56,100,82,45,30.14,30.11,30.06,10,8,0,13,6,17,0.01,4,Fog-Rain,22
2011-11-9,80,70,60,61,56,44,93,70,29,30.09,30.02,29.95,10,10,10,9,5,,0.00,0,,2
2011-11-10,78,66,55,60,54,43,93,67,37,30.02,29.95,29.88,10,10,6,18,5,25,0.00,3,Rain,322
2011-11-11,64,55,46,39,32,24,74,47,23,30.26,30.17,30.04,10,10,10,16,11,25,0.00,0,,25
2011-11-12,73,59,45,52,45,35,86,60,39,30.32,30.27,30.24,10,10,10,8,5,17,0.00,0,,62
2011-11-13,78,64,51,58,54,49,94,72,42,30.27,30.21,30.15,10,10,10,10,2,,0.00,1,,100
2011-11-14,82,70,57,67,61,55,96,76,47,30.19,30.13,30.06,10,10,3,8,2,,0.00,1,,126
2011-11-15,84,75,66,70,68,64,94,84,58,30.09,30.05,30.00,10,10,7,6,1,,0.00,4,,185
2011-11-16,86,78,71,70,68,66,94,70,51,30.08,30.01,29.96,10,10,10,9,6,,0.00,4,,200
2011-11-17,80,76,71,72,67,64,94,74,58,30.08,30.01,29.84,10,9,5,9,7,,0.00,4,Rain,278
2011-11-18,75,63,51,57,51,41,81,63,42,30.26,30.23,30.18,10,10,10,15,9,22,0.00,1,,47
2011-11-19,79,70,62,62,59,54,90,71,54,30.28,30.24,30.21,10,10,10,12,6,,0.00,6,,71
2011-11-20,82,72,63,67,63,60,93,75,46,30.29,30.26,30.22,10,10,7,12,5,,0.00,1,,77
2011-11-21,84,72,60,65,62,58,93,74,51,30.28,30.21,30.15,10,10,9,12,4,,0.00,2,,66
2011-11-22,81,74,66,68,65,64,94,80,56,30.21,30.14,30.09,10,9,1,9,4,,0.00,2,,146
2011-11-23,79,72,64,67,65,62,90,78,65,30.11,30.06,29.99,10,10,10,14,9,22,0.01,2,,251
2011-11-24,75,64,54,55,52,50,86,68,43,30.29,30.20,30.10,10,10,10,17,10,23,0.00,2,,24
2011-11-25,77,66,55,58,54,50,90,67,39,30.29,30.24,30.19,10,10,10,13,6,21,0.00,3,,67
2011-11-26,79,70,61,60,57,54,87,65,42,30.25,30.20,30.15,10,10,10,14,7,18,0.00,3,,94
2011-11-27,79,70,61,61,57,50,90,65,36,30.14,30.07,29.99,10,10,10,13,5,17,0.00,2,,131
2011-11-28,79,69,59,65,59,55,94,87,54,29.97,29.92,29.86,10,9,4,17,7,28,0.10,6,Rain,252
2011-11-29,66,60,54,57,50,45,93,74,47,30.04,29.98,29.92,10,10,10,18,7,24,0.01,3,,287
2011-11-30,61,54,46,52,44,37,89,70,46,30.13,30.05,29.99,10,10,10,12,6,,0.00,3,,325